createdAt,value
2023-01-31T00:00:28.142Z,97013.39
2023-01-31T00:04:00.240Z,97019.46
2023-01-31T00:07:03.050Z,97022.00
2023-01-31T00:10:06.303Z,97023.28
2023-01-31T00:13:09.302Z,97026.59
2023-01-31T00:16:13.996Z,97030.73
2023-01-31T00:19:16.951Z,97033.29
2023-01-31T00:22:19.842Z,97038.02
2023-01-31T00:25:23.069Z,97037.35
2023-01-31T00:28:25.907Z,97039.79
2023-01-31T00:31:31.357Z,97042.66
2023-01-31T00:34:34.745Z,97048.27
2023-01-31T00:37:37.595Z,97052.66
2023-01-31T00:40:40.786Z,97059.98
2023-01-31T00:43:43.795Z,97062.14
2023-01-31T00:46:46.777Z,97067.48
2023-01-31T00:49:49.623Z,97074.39
2023-01-31T00:52:52.582Z,97085.77
2023-01-31T00:56:01.699Z,97083.27
2023-01-31T00:59:08.634Z,97095.39
2023-01-31T01:02:11.543Z,97097.29
2023-01-31T01:05:14.665Z,97114.33
2023-01-31T01:08:17.509Z,97102.92
2023-01-31T01:11:26.079Z,97104.94
2023-01-31T01:14:29.166Z,97097.08
2023-01-31T01:17:32.673Z,97103.36
2023-01-31T01:20:36.594Z,97103.93
2023-01-31T01:23:41.009Z,97106.60
2023-01-31T01:26:44.823Z,97111.33
2023-01-31T01:29:47.800Z,97112.66
2023-01-31T01:32:50.687Z,97113.80
2023-01-31T01:35:53.532Z,97116.92
2023-01-31T01:38:57.083Z,97114.45
2023-01-31T01:41:59.863Z,97123.75
2023-01-31T01:45:15.856Z,97127.82
2023-01-31T01:48:18.828Z,97132.13
2023-01-31T01:51:22.575Z,97136.98
2023-01-31T01:54:30.768Z,97138.02
2023-01-31T01:57:38.029Z,97139.90
2023-01-31T02:00:40.993Z,97134.23
2023-01-31T02:03:45.717Z,97131.05
2023-01-31T02:06:49.059Z,97143.47
2023-01-31T02:10:00.401Z,97152.34
2023-01-31T02:13:04.103Z,97148.44
2023-01-31T02:16:07.623Z,97154.20
2023-01-31T02:19:22.641Z,97158.42
2023-01-31T02:22:35.333Z,97168.38
2023-01-31T02:25:53.931Z,97164.18
2023-01-31T02:29:24.517Z,97162.45
2023-01-31T02:32:38.237Z,97165.63
2023-01-31T02:36:19.237Z,97171.11
2023-01-31T02:39:37.532Z,97175.45
2023-01-31T02:42:55.156Z,97170.89
2023-01-31T02:46:18.410Z,97176.14
2023-01-31T02:49:40.774Z,97181.58
2023-01-31T02:52:52.632Z,97192.38
2023-01-31T02:56:20.646Z,97193.92
2023-01-31T02:59:27.973Z,97198.26
2023-01-31T03:02:30.831Z,97201.86
2023-01-31T03:05:33.832Z,97199.67
2023-01-31T03:08:42.921Z,97211.17
2023-01-31T03:11:48.769Z,97215.94
2023-01-31T03:14:54.344Z,97215.48
2023-01-31T03:18:13.746Z,97221.31
2023-01-31T03:21:27.955Z,97222.96
2023-01-31T03:24:32.115Z,97222.98
2023-01-31T03:27:36.621Z,97234.71
2023-01-31T03:30:54.774Z,97239.16
2023-01-31T03:34:03.899Z,97239.83
2023-01-31T03:37:16.682Z,97248.61
2023-01-31T03:40:31.168Z,97253.30
2023-01-31T03:43:50.996Z,97252.64
2023-01-31T03:47:00.506Z,97260.71
2023-01-31T03:50:14.118Z,97261.09
2023-01-31T03:53:20.495Z,97268.20
2023-01-31T03:56:23.291Z,97269.38
2023-01-31T03:59:32.545Z,97274.52
2023-01-31T04:02:37.435Z,97278.26
2023-01-31T04:05:41.004Z,97278.88
2023-01-31T04:08:43.936Z,97287.64
2023-01-31T04:11:50.698Z,97291.24
2023-01-31T04:14:53.503Z,97302.13
2023-01-31T04:17:56.353Z,97301.48
2023-01-31T04:20:59.439Z,97306.04
2023-01-31T04:24:02.572Z,97313.73
2023-01-31T04:27:05.433Z,97319.16
2023-01-31T04:30:08.867Z,97312.08
2023-01-31T04:33:11.888Z,97319.83
2023-01-31T04:36:14.828Z,97325.44
2023-01-31T04:39:17.783Z,97327.13
2023-01-31T04:42:20.665Z,97326.70
2023-01-31T04:45:23.614Z,97322.94
2023-01-31T04:48:28.293Z,97332.09
2023-01-31T04:51:31.839Z,97335.03
2023-01-31T04:54:34.708Z,97334.70
2023-01-31T04:57:37.755Z,97340.60
2023-01-31T05:00:40.599Z,97343.73
2023-01-31T05:03:43.552Z,97343.50
2023-01-31T05:06:46.458Z,97351.20
2023-01-31T05:09:49.369Z,97360.50
2023-01-31T05:12:52.385Z,97365.95
2023-01-31T05:15:55.234Z,97368.38
2023-01-31T05:18:58.138Z,97377.27
2023-01-31T05:22:01.113Z,97376.14
2023-01-31T05:25:05.096Z,97380.05
2023-01-31T05:28:08.507Z,97388.61
2023-01-31T05:31:13.527Z,97393.33
2023-01-31T05:34:16.521Z,97399.62
2023-01-31T05:37:19.569Z,97405.29
2023-01-31T05:40:23.027Z,97407.81
2023-01-31T05:43:25.838Z,97415.98
2023-01-31T05:46:28.773Z,97412.06
2023-01-31T05:49:33.663Z,97416.17
2023-01-31T05:52:36.685Z,97420.89
2023-01-31T05:55:39.655Z,97424.18
2023-01-31T05:58:42.863Z,97425.23
2023-01-31T06:01:45.881Z,97429.98
2023-01-31T06:04:49.550Z,97426.52
2023-01-31T06:07:52.444Z,97436.22
2023-01-31T06:10:55.550Z,97440.52
2023-01-31T06:13:59.499Z,97451.61
2023-01-31T06:17:02.463Z,97458.98
2023-01-31T06:20:06.026Z,97459.27
2023-01-31T06:23:08.949Z,97464.25
2023-01-31T06:26:12.510Z,97465.23
2023-01-31T06:29:15.462Z,97468.11
2023-01-31T06:32:18.514Z,97470.63
2023-01-31T06:35:21.801Z,97478.14
2023-01-31T06:38:24.834Z,97485.61
2023-01-31T06:41:27.795Z,97492.36
2023-01-31T06:44:33.320Z,97496.17
2023-01-31T06:47:36.255Z,97504.57
2023-01-31T06:50:39.100Z,97507.44
2023-01-31T06:53:41.976Z,97510.48
2023-01-31T06:56:44.775Z,97513.45
2023-01-31T06:59:47.604Z,97519.00
2023-01-31T07:02:51.230Z,97525.12
2023-01-31T07:05:54.111Z,97530.33
2023-01-31T07:08:57.104Z,97539.94
2023-01-31T07:12:00.003Z,97542.38
2023-01-31T07:15:03.584Z,97546.61
2023-01-31T07:18:06.644Z,97548.30
2023-01-31T07:21:10.997Z,97554.86
2023-01-31T07:24:13.880Z,97562.95
2023-01-31T07:27:17.311Z,97563.89
2023-01-31T07:30:20.270Z,97568.53
2023-01-31T07:33:23.139Z,97576.23
2023-01-31T07:36:26.997Z,97579.73
2023-01-31T07:39:30.214Z,97578.23
2023-01-31T07:42:33.450Z,97582.31
2023-01-31T07:45:36.670Z,97584.52
2023-01-31T07:48:39.772Z,97593.33
2023-01-31T07:51:42.868Z,97589.02
2023-01-31T07:54:45.667Z,97587.16
2023-01-31T07:57:48.666Z,97590.48
2023-01-31T08:01:12.454Z,97594.13
2023-01-31T08:04:22.569Z,97597.35
2023-01-31T08:07:27.168Z,97593.02
2023-01-31T08:10:30.664Z,97596.69
2023-01-31T08:13:37.930Z,97598.71
2023-01-31T08:16:41.044Z,97601.98
2023-01-31T08:19:44.204Z,97605.66
2023-01-31T08:22:47.088Z,97608.24
2023-01-31T08:25:49.939Z,97610.67
2023-01-31T08:28:54.182Z,97614.08
2023-01-31T08:31:57.260Z,97620.20
2023-01-31T08:35:00.194Z,97622.33
2023-01-31T08:38:15.628Z,97626.88
2023-01-31T08:41:21.205Z,97629.61
2023-01-31T08:44:24.047Z,97635.80
2023-01-31T08:47:26.888Z,97637.83
2023-01-31T08:50:32.780Z,97646.05
2023-01-31T08:53:39.055Z,97651.02
2023-01-31T08:56:41.994Z,97658.70
2023-01-31T08:59:44.820Z,97659.91
2023-01-31T09:02:59.675Z,97659.90
2023-01-31T09:06:05.207Z,97660.66
2023-01-31T09:09:08.033Z,97658.73
2023-01-31T09:12:10.843Z,97660.91
2023-01-31T09:15:14.567Z,97669.86
2023-01-31T09:18:17.455Z,97671.78
2023-01-31T09:21:21.591Z,97670.92
2023-01-31T09:24:24.660Z,97675.02
2023-01-31T09:27:29.798Z,97679.14
2023-01-31T09:30:32.684Z,97685.19
2023-01-31T09:33:37.144Z,97691.36
2023-01-31T09:36:40.054Z,97689.73
2023-01-31T09:39:43.112Z,97685.98
2023-01-31T09:42:48.501Z,97680.11
2023-01-31T09:45:55.046Z,97687.20
2023-01-31T09:49:02.168Z,97688.42
2023-01-31T09:52:05.150Z,97685.84
2023-01-31T09:55:16.929Z,97691.77
2023-01-31T09:58:25.679Z,97689.50
2023-01-31T10:01:53.656Z,97686.66
2023-01-31T10:05:15.066Z,97686.89
2023-01-31T10:08:33.494Z,97688.91
2023-01-31T10:11:44.882Z,97686.15
2023-01-31T10:15:11.129Z,97677.92
2023-01-31T10:18:28.302Z,97676.27
2023-01-31T10:21:46.202Z,97688.33
2023-01-31T10:24:56.132Z,97684.28
2023-01-31T10:28:30.406Z,97687.29
2023-01-31T10:31:44.295Z,97682.55
2023-01-31T10:35:42.877Z,97687.52
2023-01-31T10:39:16.868Z,97689.41
2023-01-31T10:42:27.773Z,97691.55
2023-01-31T10:45:34.043Z,97689.86
2023-01-31T10:48:37.179Z,97689.49
2023-01-31T10:51:50.865Z,97685.15
2023-01-31T10:55:02.377Z,97688.55
2023-01-31T10:58:06.723Z,97687.95
2023-01-31T11:01:14.945Z,97678.88
2023-01-31T11:04:32.138Z,97677.94
2023-01-31T11:07:35.664Z,97679.48
2023-01-31T11:10:52.043Z,97677.84
2023-01-31T11:14:07.179Z,97675.95
2023-01-31T11:17:19.470Z,97672.94
2023-01-31T11:20:25.540Z,97669.81
2023-01-31T11:23:31.935Z,97666.65
2023-01-31T11:26:36.971Z,97654.25
2023-01-31T11:29:51.178Z,97645.31
2023-01-31T11:32:54.855Z,97640.59
2023-01-31T11:35:57.907Z,97637.20
2023-01-31T11:39:25.034Z,97634.40
2023-01-31T11:42:28.008Z,97625.73
2023-01-31T11:45:33.879Z,97618.38
2023-01-31T11:48:42.891Z,97611.64
2023-01-31T11:51:47.276Z,97609.09
2023-01-31T11:54:56.101Z,97604.58
2023-01-31T11:58:01.407Z,97608.39
2023-01-31T12:01:14.669Z,97609.92
2023-01-31T12:04:35.212Z,97616.24
2023-01-31T12:07:54.155Z,97614.05
2023-01-31T12:10:57.787Z,97603.53
2023-01-31T12:14:11.765Z,97607.29
2023-01-31T12:17:17.790Z,97595.56
2023-01-31T12:20:39.650Z,97595.06
2023-01-31T12:24:08.615Z,97597.52
2023-01-31T12:27:29.697Z,97598.64
2023-01-31T12:30:55.479Z,97586.30
2023-01-31T12:34:07.468Z,97580.30
2023-01-31T12:37:48.837Z,97570.86
2023-01-31T12:41:31.482Z,97575.14
2023-01-31T12:44:38.991Z,97569.08
2023-01-31T12:48:03.426Z,97578.10
2023-01-31T12:51:27.608Z,97578.59
2023-01-31T12:54:33.748Z,97574.59
2023-01-31T12:57:51.957Z,97575.36
2023-01-31T13:01:34.652Z,97573.46
2023-01-31T13:04:37.893Z,97576.23
2023-01-31T13:07:44.998Z,97573.63
2023-01-31T13:10:50.628Z,97571.40
2023-01-31T13:14:12.148Z,97571.40
2023-01-31T13:17:23.247Z,97568.20
2023-01-31T13:20:31.734Z,97567.63
2023-01-31T13:23:48.571Z,97566.59
2023-01-31T13:27:10.476Z,97567.98
2023-01-31T13:30:38.585Z,97565.33
2023-01-31T13:33:51.045Z,97565.09
2023-01-31T13:37:12.059Z,97567.59
2023-01-31T13:40:22.200Z,97568.70
2023-01-31T13:43:25.078Z,97573.73
2023-01-31T13:46:34.011Z,97569.17
2023-01-31T13:49:41.555Z,97566.65
2023-01-31T13:52:57.162Z,97567.45
2023-01-31T13:56:02.729Z,97562.84
2023-01-31T13:59:10.093Z,97565.16
2023-01-31T14:02:19.770Z,97563.71
2023-01-31T14:05:41.251Z,97563.89
2023-01-31T14:08:53.297Z,97559.80
2023-01-31T14:12:09.712Z,97558.81
2023-01-31T14:15:48.975Z,97561.88
2023-01-31T14:18:51.949Z,97562.59
2023-01-31T14:22:03.908Z,97568.31
2023-01-31T14:25:09.715Z,97569.39
2023-01-31T14:28:12.681Z,97563.44
2023-01-31T14:31:20.473Z,97558.92
2023-01-31T14:34:29.737Z,97558.29
2023-01-31T14:37:52.806Z,97551.95
2023-01-31T14:40:55.625Z,97551.93
2023-01-31T14:44:10.739Z,97548.84
2023-01-31T14:47:26.859Z,97538.57
2023-01-31T14:50:35.339Z,97539.40
2023-01-31T14:54:07.731Z,97534.75
2023-01-31T14:57:25.649Z,97529.02
2023-01-31T15:00:32.603Z,97521.04
2023-01-31T15:03:40.282Z,97515.88
2023-01-31T15:06:44.529Z,97514.63
2023-01-31T15:09:50.195Z,97514.21
2023-01-31T15:13:01.351Z,97510.04
2023-01-31T15:16:09.353Z,97509.59
2023-01-31T15:19:19.462Z,97498.24
2023-01-31T15:22:23.659Z,97501.05
2023-01-31T15:25:40.225Z,97501.25
2023-01-31T15:28:45.332Z,97503.84
2023-01-31T15:31:52.447Z,97505.09
2023-01-31T15:35:07.544Z,97506.10
2023-01-31T15:38:22.645Z,97499.19
2023-01-31T15:41:43.305Z,97501.06
2023-01-31T15:44:46.350Z,97503.98
2023-01-31T15:48:06.755Z,97494.95
2023-01-31T15:51:13.792Z,97490.02
2023-01-31T15:54:16.869Z,97483.11
2023-01-31T15:57:22.172Z,97484.02
2023-01-31T16:00:25.866Z,97477.79
2023-01-31T16:03:31.430Z,97472.96
2023-01-31T16:06:39.955Z,97464.85
2023-01-31T16:09:43.131Z,97458.80
2023-01-31T16:12:49.323Z,97457.52
2023-01-31T16:15:53.190Z,97453.57
2023-01-31T16:18:59.224Z,97455.84
2023-01-31T16:22:02.794Z,97456.83
2023-01-31T16:25:06.054Z,97464.89
2023-01-31T16:28:12.523Z,97465.45
2023-01-31T16:31:18.283Z,97464.83
2023-01-31T16:34:26.450Z,97468.50
2023-01-31T16:37:44.057Z,97467.06
2023-01-31T16:40:53.170Z,97475.05
2023-01-31T16:43:56.948Z,97472.29
2023-01-31T16:46:59.787Z,97475.75
2023-01-31T16:50:42.521Z,97478.13
2023-01-31T16:53:46.371Z,97478.97
2023-01-31T16:57:01.667Z,97489.60
2023-01-31T17:00:07.289Z,97489.14
2023-01-31T17:03:19.890Z,97487.71
2023-01-31T17:06:22.700Z,97487.22
2023-01-31T17:09:25.631Z,97481.95
2023-01-31T17:12:30.965Z,97484.46
2023-01-31T17:15:33.810Z,97491.30
2023-01-31T17:18:37.064Z,97485.41
2023-01-31T17:21:41.878Z,97480.75
2023-01-31T17:24:46.862Z,97482.11
2023-01-31T17:27:50.164Z,97466.91
2023-01-31T17:30:53.275Z,97466.27
2023-01-31T17:33:56.269Z,97471.14
2023-01-31T17:36:59.113Z,97470.23
2023-01-31T17:40:02.013Z,97465.45
2023-01-31T17:43:05.230Z,97467.46
2023-01-31T17:46:11.663Z,97466.58
2023-01-31T17:49:14.612Z,97458.75
2023-01-31T17:52:17.585Z,97453.25
2023-01-31T17:55:23.288Z,97444.10
2023-01-31T17:58:27.518Z,97443.81
2023-01-31T18:01:31.753Z,97432.14
2023-01-31T18:04:34.880Z,97423.23
2023-01-31T18:07:38.470Z,97414.98
2023-01-31T18:10:42.324Z,97410.49
2023-01-31T18:13:45.439Z,97400.66
2023-01-31T18:16:50.946Z,97396.91
2023-01-31T18:19:53.818Z,97393.70
2023-01-31T18:22:56.657Z,97390.70
2023-01-31T18:25:59.740Z,97391.64
2023-01-31T18:29:02.606Z,97386.52
2023-01-31T18:32:07.994Z,97376.88
2023-01-31T18:35:11.175Z,97375.73
2023-01-31T18:38:14.145Z,97373.10
2023-01-31T18:41:19.652Z,97376.27
2023-01-31T18:44:22.649Z,97366.87
2023-01-31T18:47:25.508Z,97363.92
2023-01-31T18:50:30.752Z,97364.29
2023-01-31T18:53:35.169Z,97371.80
2023-01-31T18:56:38.338Z,97365.48
2023-01-31T18:59:41.453Z,97362.26
2023-01-31T19:02:50.171Z,97355.91
2023-01-31T19:05:53.356Z,97357.75
2023-01-31T19:08:57.975Z,97354.80
2023-01-31T19:12:01.011Z,97360.75
2023-01-31T19:15:04.508Z,97353.02
2023-01-31T19:18:07.553Z,97344.27
2023-01-31T19:21:19.851Z,97340.64
2023-01-31T19:24:23.132Z,97334.83
2023-01-31T19:27:26.492Z,97337.17
2023-01-31T19:30:29.451Z,97331.17
2023-01-31T19:33:32.752Z,97325.98
2023-01-31T19:36:38.625Z,97317.15
2023-01-31T19:39:41.960Z,97307.85
2023-01-31T19:42:45.847Z,97296.88
2023-01-31T19:45:48.839Z,97292.80
2023-01-31T19:48:51.821Z,97298.50
2023-01-31T19:51:54.874Z,97286.57
2023-01-31T19:54:58.163Z,97277.05
2023-01-31T19:58:01.087Z,97268.41
2023-01-31T20:01:06.737Z,97266.15
2023-01-31T20:04:09.722Z,97254.83
2023-01-31T20:07:12.829Z,97254.80
2023-01-31T20:10:16.092Z,97260.70
2023-01-31T20:13:21.798Z,97266.33
2023-01-31T20:16:25.361Z,97267.70
2023-01-31T20:19:28.286Z,97273.63
2023-01-31T20:22:31.611Z,97273.08
2023-01-31T20:25:34.580Z,97277.15
2023-01-31T20:28:37.694Z,97276.88
2023-01-31T20:31:40.908Z,97273.02
2023-01-31T20:34:44.906Z,97266.51
2023-01-31T20:37:50.867Z,97265.05
2023-01-31T20:40:59.791Z,97267.30
2023-01-31T20:44:10.550Z,97265.92
2023-01-31T20:47:14.363Z,97271.51
2023-01-31T20:50:19.269Z,97275.88
2023-01-31T20:53:30.930Z,97274.37
2023-01-31T20:56:33.903Z,97265.62
2023-01-31T20:59:36.994Z,97258.34
2023-01-31T21:02:39.944Z,97247.02
2023-01-31T21:05:42.841Z,97244.40
2023-01-31T21:08:48.353Z,97244.83
2023-01-31T21:11:51.593Z,97250.44
2023-01-31T21:14:54.560Z,97246.56
2023-01-31T21:17:57.676Z,97243.13
2023-01-31T21:21:06.926Z,97241.70
2023-01-31T21:24:09.982Z,97237.20
2023-01-31T21:27:13.061Z,97240.23
2023-01-31T21:30:17.208Z,97245.48
2023-01-31T21:33:20.105Z,97245.30
2023-01-31T21:36:25.272Z,97246.25
2023-01-31T21:39:28.210Z,97241.73
2023-01-31T21:42:31.711Z,97243.70
2023-01-31T21:45:40.552Z,97247.04
2023-01-31T21:48:43.675Z,97246.50
2023-01-31T21:51:46.711Z,97248.45
2023-01-31T21:54:49.721Z,97242.31
2023-01-31T21:57:52.905Z,97242.13
2023-01-31T22:00:55.870Z,97239.71
2023-01-31T22:03:59.326Z,97231.81
2023-01-31T22:07:02.525Z,97235.27
2023-01-31T22:10:05.953Z,97246.27
2023-01-31T22:13:08.792Z,97241.52
2023-01-31T22:16:12.900Z,97229.14
2023-01-31T22:19:15.818Z,97220.64
2023-01-31T22:22:18.700Z,97217.66
2023-01-31T22:25:21.677Z,97214.78
2023-01-31T22:28:25.061Z,97212.17
2023-01-31T22:31:29.560Z,97214.11
2023-01-31T22:34:32.540Z,97219.27
2023-01-31T22:37:35.446Z,97211.11
2023-01-31T22:40:43.397Z,97217.05
2023-01-31T22:43:48.187Z,97209.06
2023-01-31T22:46:51.218Z,97201.55
2023-01-31T22:49:54.507Z,97204.48
2023-01-31T22:52:57.378Z,97203.11
2023-01-31T22:56:02.717Z,97199.28
2023-01-31T22:59:06.667Z,97204.41
2023-01-31T23:02:09.574Z,97198.45
2023-01-31T23:05:12.508Z,97197.52
2023-01-31T23:08:16.731Z,97192.82
2023-01-31T23:11:20.206Z,97195.73
2023-01-31T23:14:23.189Z,97194.42
2023-01-31T23:17:38.324Z,97196.05
2023-01-31T23:20:41.261Z,97195.76
2023-01-31T23:23:45.111Z,97203.91
2023-01-31T23:26:48.170Z,97194.17
2023-01-31T23:29:51.235Z,97197.99
2023-01-31T23:32:54.216Z,97198.19
2023-01-31T23:35:57.188Z,97200.89
2023-01-31T23:39:00.935Z,97208.83
2023-01-31T23:42:03.917Z,97200.85
2023-01-31T23:45:07.610Z,97211.95
2023-01-31T23:48:10.426Z,97207.12
2023-01-31T23:51:13.440Z,97218.17
2023-01-31T23:54:16.492Z,97223.94
2023-01-31T23:57:19.381Z,97218.21
